Red Bay, Florida
Current Conditions -  °F | °C
As of 1:15 PM on Saturday 25 Oct 2014 (Local Time) from K54J Reporting Station
Clear Clear  
Wind Chill: 74°   Ceiling: Unl
Heat Index: 74°   Visibility: 10mi
Dew Point: 41°   Wind: 8mph
Humidity: 30%   Direction: 330°NNW
Pressure: 30.05"   Gusts: NA
Location:  30.678°N, 85.9545°W
Report Text: K54J 251815Z AUTO 33007KT 10SM CLR 24/05 A3005 RMK AO2 T02350050
Loading
Personal Weather Stations






























Interactive Weather Map
Tropical Storm Tracking
New forecast layout! Learn more

10-Day Weather Forecast

Advertisements
Track Severe Weather on mobile